sensor_id;sensor_type;location;lat;lon;timestamp;temperature;humidity
37646;DHT22;23489;49.600;6.138;2024-03-02T00:00:07;6.00;99.90
37646;DHT22;23489;49.600;6.138;2024-03-02T00:02:42;6.00;99.90
37646;DHT22;23489;49.600;6.138;2024-03-02T00:05:11;6.00;99.90
37646;DHT22;23489;49.600;6.138;2024-03-02T00:07:40;6.00;99.90
37646;DHT22;23489;49.600;6.138;2024-03-02T00:10:09;5.90;99.90
37646;DHT22;23489;49.600;6.138;2024-03-02T00:12:38;5.90;99.90
37646;DHT22;23489;49.600;6.138;2024-03-02T00:17:45;5.90;99.90
37646;DHT22;23489;49.600;6.138;2024-03-02T00:20:16;5.90;99.90
37646;DHT22;23489;49.600;6.138;2024-03-02T00:22:43;5.90;99.90
37646;DHT22;23489;49.600;6.138;2024-03-02T00:25:09;5.80;99.90
37646;DHT22;23489;49.600;6.138;2024-03-02T00:27:36;5.80;99.90
37646;DHT22;23489;49.600;6.138;2024-03-02T00:30:13;5.80;99.90
37646;DHT22;23489;49.600;6.138;2024-03-02T00:32:52;5.70;99.90
37646;DHT22;23489;49.600;6.138;2024-03-02T00:35:23;5.70;99.90
37646;DHT22;23489;49.600;6.138;2024-03-02T00:37:49;5.70;99.90
37646;DHT22;23489;49.600;6.138;2024-03-02T00:40:17;5.70;99.90
37646;DHT22;23489;49.600;6.138;2024-03-02T00:42:44;5.70;99.90
37646;DHT22;23489;49.600;6.138;2024-03-02T00:45:10;5.70;99.90
37646;DHT22;23489;49.600;6.138;2024-03-02T00:47:39;5.70;99.90
37646;DHT22;23489;49.600;6.138;2024-03-02T00:50:05;5.80;99.90
37646;DHT22;23489;49.600;6.138;2024-03-02T00:52:32;5.80;99.90
37646;DHT22;23489;49.600;6.138;2024-03-02T00:54:59;5.90;99.90
37646;DHT22;23489;49.600;6.138;2024-03-02T00:57:25;6.00;99.90
37646;DHT22;23489;49.600;6.138;2024-03-02T00:59:51;6.00;99.90
37646;DHT22;23489;49.600;6.138;2024-03-02T01:02:17;6.10;99.90
37646;DHT22;23489;49.600;6.138;2024-03-02T01:04:45;6.20;99.90
37646;DHT22;23489;49.600;6.138;2024-03-02T01:07:11;6.30;99.90
37646;DHT22;23489;49.600;6.138;2024-03-02T01:09:36;6.30;99.90
37646;DHT22;23489;49.600;6.138;2024-03-02T01:12:03;6.40;99.90
37646;DHT22;23489;49.600;6.138;2024-03-02T01:14:28;6.40;99.90
37646;DHT22;23489;49.600;6.138;2024-03-02T01:16:54;6.40;99.90
37646;DHT22;23489;49.600;6.138;2024-03-02T01:19:20;6.40;99.90
37646;DHT22;23489;49.600;6.138;2024-03-02T01:21:46;6.40;99.90
37646;DHT22;23489;49.600;6.138;2024-03-02T01:24:12;6.40;99.90
37646;DHT22;23489;49.600;6.138;2024-03-02T01:26:38;6.40;99.90
37646;DHT22;23489;49.600;6.138;2024-03-02T01:29:04;6.40;99.90
37646;DHT22;23489;49.600;6.138;2024-03-02T01:31:30;6.40;99.90
37646;DHT22;23489;49.600;6.138;2024-03-02T01:33:55;6.40;99.90
37646;DHT22;23489;49.600;6.138;2024-03-02T01:36:21;6.50;99.90
37646;DHT22;23489;49.600;6.138;2024-03-02T01:38:47;6.50;99.90
37646;DHT22;23489;49.600;6.138;2024-03-02T01:41:13;6.50;99.90
37646;DHT22;23489;49.600;6.138;2024-03-02T01:43:39;6.50;99.90
37646;DHT22;23489;49.600;6.138;2024-03-02T01:46:04;6.50;99.90
37646;DHT22;23489;49.600;6.138;2024-03-02T01:48:30;6.50;99.90
37646;DHT22;23489;49.600;6.138;2024-03-02T01:50:56;6.50;99.90
37646;DHT22;23489;49.600;6.138;2024-03-02T01:53:21;6.40;99.90
37646;DHT22;23489;49.600;6.138;2024-03-02T01:55:47;6.40;99.90
37646;DHT22;23489;49.600;6.138;2024-03-02T01:58:13;6.30;99.90
37646;DHT22;23489;49.600;6.138;2024-03-02T02:00:38;6.40;99.90
37646;DHT22;23489;49.600;6.138;2024-03-02T02:03:04;6.30;99.90
37646;DHT22;23489;49.600;6.138;2024-03-02T02:05:30;6.40;99.90
37646;DHT22;23489;49.600;6.138;2024-03-02T02:07:57;6.40;99.90
37646;DHT22;23489;49.600;6.138;2024-03-02T02:10:24;6.40;99.90
37646;DHT22;23489;49.600;6.138;2024-03-02T02:12:49;6.40;99.90
37646;DHT22;23489;49.600;6.138;2024-03-02T02:15:26;6.40;99.90
37646;DHT22;23489;49.600;6.138;2024-03-02T02:17:52;6.40;99.90
37646;DHT22;23489;49.600;6.138;2024-03-02T02:20:18;6.40;99.90
37646;DHT22;23489;49.600;6.138;2024-03-02T02:23:00;6.30;99.90
37646;DHT22;23489;49.600;6.138;2024-03-02T02:25:27;6.30;99.90
37646;DHT22;23489;49.600;6.138;2024-03-02T02:27:52;6.30;99.90
37646;DHT22;23489;49.600;6.138;2024-03-02T02:30:21;6.30;99.90
37646;DHT22;23489;49.600;6.138;2024-03-02T02:32:47;6.30;99.90
37646;DHT22;23489;49.600;6.138;2024-03-02T02:35:13;6.40;99.90
37646;DHT22;23489;49.600;6.138;2024-03-02T02:37:39;6.50;99.90
37646;DHT22;23489;49.600;6.138;2024-03-02T02:40:05;6.60;99.90
37646;DHT22;23489;49.600;6.138;2024-03-02T02:42:31;6.60;99.90
37646;DHT22;23489;49.600;6.138;2024-03-02T02:44:56;6.70;99.90
37646;DHT22;23489;49.600;6.138;2024-03-02T02:47:22;6.70;99.90
37646;DHT22;23489;49.600;6.138;2024-03-02T02:49:47;6.70;99.90
37646;DHT22;23489;49.600;6.138;2024-03-02T02:52:13;6.70;99.90
37646;DHT22;23489;49.600;6.138;2024-03-02T02:54:39;6.70;99.90
37646;DHT22;23489;49.600;6.138;2024-03-02T02:57:04;6.60;99.90
37646;DHT22;23489;49.600;6.138;2024-03-02T02:59:30;6.70;99.90
37646;DHT22;23489;49.600;6.138;2024-03-02T03:01:56;6.70;99.90
37646;DHT22;23489;49.600;6.138;2024-03-02T03:04:21;6.70;99.90
37646;DHT22;23489;49.600;6.138;2024-03-02T03:06:47;6.70;99.90
37646;DHT22;23489;49.600;6.138;2024-03-02T03:09:13;6.70;99.90
37646;DHT22;23489;49.600;6.138;2024-03-02T03:11:38;6.70;99.90
37646;DHT22;23489;49.600;6.138;2024-03-02T03:14:04;6.70;99.90
37646;DHT22;23489;49.600;6.138;2024-03-02T03:16:30;6.70;99.90
37646;DHT22;23489;49.600;6.138;2024-03-02T03:18:56;6.60;99.90
37646;DHT22;23489;49.600;6.138;2024-03-02T03:21:21;6.60;99.90
37646;DHT22;23489;49.600;6.138;2024-03-02T03:23:47;6.60;99.90
37646;DHT22;23489;49.600;6.138;2024-03-02T03:26:13;6.60;99.90
37646;DHT22;23489;49.600;6.138;2024-03-02T03:28:38;6.50;99.90
37646;DHT22;23489;49.600;6.138;2024-03-02T03:31:04;6.50;99.90
37646;DHT22;23489;49.600;6.138;2024-03-02T03:33:30;6.50;99.90
37646;DHT22;23489;49.600;6.138;2024-03-02T03:35:55;6.40;99.90
37646;DHT22;23489;49.600;6.138;2024-03-02T03:38:21;6.50;99.90
37646;DHT22;23489;49.600;6.138;2024-03-02T03:40:47;6.50;99.90
37646;DHT22;23489;49.600;6.138;2024-03-02T03:43:13;6.50;99.90
37646;DHT22;23489;49.600;6.138;2024-03-02T03:45:38;6.40;99.90
37646;DHT22;23489;49.600;6.138;2024-03-02T03:48:04;6.50;99.90
37646;DHT22;23489;49.600;6.138;2024-03-02T03:50:30;6.50;99.90
37646;DHT22;23489;49.600;6.138;2024-03-02T03:52:56;6.50;99.90
37646;DHT22;23489;49.600;6.138;2024-03-02T03:55:22;6.50;99.90
37646;DHT22;23489;49.600;6.138;2024-03-02T03:57:47;6.50;99.90
37646;DHT22;23489;49.600;6.138;2024-03-02T04:00:13;6.50;99.90
37646;DHT22;23489;49.600;6.138;2024-03-02T04:02:39;6.50;99.90
37646;DHT22;23489;49.600;6.138;2024-03-02T04:05:05;6.50;99.90
37646;DHT22;23489;49.600;6.138;2024-03-02T04:07:35;6.50;99.90
37646;DHT22;23489;49.600;6.138;2024-03-02T04:10:10;6.50;99.90
37646;DHT22;23489;49.600;6.138;2024-03-02T04:12:38;6.50;99.90
37646;DHT22;23489;49.600;6.138;2024-03-02T04:15:07;6.50;99.90
37646;DHT22;23489;49.600;6.138;2024-03-02T04:17:34;6.50;99.90
37646;DHT22;23489;49.600;6.138;2024-03-02T04:20:01;6.40;99.90
37646;DHT22;23489;49.600;6.138;2024-03-02T04:22:27;6.40;99.90
37646;DHT22;23489;49.600;6.138;2024-03-02T04:24:53;6.40;99.90
37646;DHT22;23489;49.600;6.138;2024-03-02T04:27:19;6.40;99.90
37646;DHT22;23489;49.600;6.138;2024-03-02T04:29:45;6.40;99.90
37646;DHT22;23489;49.600;6.138;2024-03-02T04:32:11;6.40;99.90
37646;DHT22;23489;49.600;6.138;2024-03-02T04:34:36;6.40;99.90
37646;DHT22;23489;49.600;6.138;2024-03-02T04:37:02;6.40;99.90
37646;DHT22;23489;49.600;6.138;2024-03-02T04:39:28;6.40;99.90
37646;DHT22;23489;49.600;6.138;2024-03-02T04:41:54;6.40;99.90
37646;DHT22;23489;49.600;6.138;2024-03-02T04:44:19;6.30;99.90
37646;DHT22;23489;49.600;6.138;2024-03-02T04:46:45;6.30;99.90
37646;DHT22;23489;49.600;6.138;2024-03-02T04:49:11;6.30;99.90
37646;DHT22;23489;49.600;6.138;2024-03-02T04:51:36;6.30;99.90
37646;DHT22;23489;49.600;6.138;2024-03-02T04:54:02;6.30;99.90
37646;DHT22;23489;49.600;6.138;2024-03-02T04:56:28;6.30;99.90
37646;DHT22;23489;49.600;6.138;2024-03-02T04:58:56;6.30;99.90
37646;DHT22;23489;49.600;6.138;2024-03-02T05:01:22;6.20;99.90
37646;DHT22;23489;49.600;6.138;2024-03-02T05:03:48;6.30;99.90
37646;DHT22;23489;49.600;6.138;2024-03-02T05:06:14;6.20;99.90
37646;DHT22;23489;49.600;6.138;2024-03-02T05:08:39;6.20;99.90
37646;DHT22;23489;49.600;6.138;2024-03-02T05:11:05;6.20;99.90
37646;DHT22;23489;49.600;6.138;2024-03-02T05:13:49;6.20;99.90
37646;DHT22;23489;49.600;6.138;2024-03-02T05:16:15;6.20;99.90
37646;DHT22;23489;49.600;6.138;2024-03-02T05:18:41;6.20;99.90
37646;DHT22;23489;49.600;6.138;2024-03-02T05:21:06;6.30;99.90
37646;DHT22;23489;49.600;6.138;2024-03-02T05:23:32;6.30;99.90
37646;DHT22;23489;49.600;6.138;2024-03-02T05:25:58;6.30;99.90
37646;DHT22;23489;49.600;6.138;2024-03-02T05:28:24;6.20;99.90
37646;DHT22;23489;49.600;6.138;2024-03-02T05:30:50;6.20;99.90
37646;DHT22;23489;49.600;6.138;2024-03-02T05:33:16;6.20;99.90
37646;DHT22;23489;49.600;6.138;2024-03-02T05:35:43;6.30;99.90
37646;DHT22;23489;49.600;6.138;2024-03-02T05:38:09;6.30;99.90
37646;DHT22;23489;49.600;6.138;2024-03-02T05:40:34;6.30;99.90
37646;DHT22;23489;49.600;6.138;2024-03-02T05:43:00;6.30;99.90
37646;DHT22;23489;49.600;6.138;2024-03-02T05:45:26;6.20;99.90
37646;DHT22;23489;49.600;6.138;2024-03-02T05:47:51;6.20;99.90
37646;DHT22;23489;49.600;6.138;2024-03-02T05:50:17;6.10;99.90
37646;DHT22;23489;49.600;6.138;2024-03-02T05:52:45;6.10;99.90
37646;DHT22;23489;49.600;6.138;2024-03-02T05:55:10;6.10;99.90
37646;DHT22;23489;49.600;6.138;2024-03-02T05:57:36;6.00;99.90
37646;DHT22;23489;49.600;6.138;2024-03-02T06:00:20;5.90;99.90
37646;DHT22;23489;49.600;6.138;2024-03-02T06:02:47;5.90;99.90
37646;DHT22;23489;49.600;6.138;2024-03-02T06:05:13;5.90;99.90
37646;DHT22;23489;49.600;6.138;2024-03-02T06:07:40;5.80;99.90
37646;DHT22;23489;49.600;6.138;2024-03-02T06:10:06;5.80;99.90
37646;DHT22;23489;49.600;6.138;2024-03-02T06:12:34;5.80;99.90
37646;DHT22;23489;49.600;6.138;2024-03-02T06:14:59;5.80;99.90
37646;DHT22;23489;49.600;6.138;2024-03-02T06:17:25;5.80;99.90
37646;DHT22;23489;49.600;6.138;2024-03-02T06:19:51;5.80;99.90
37646;DHT22;23489;49.600;6.138;2024-03-02T06:22:16;5.80;99.90
37646;DHT22;23489;49.600;6.138;2024-03-02T06:24:42;5.80;99.90
37646;DHT22;23489;49.600;6.138;2024-03-02T06:27:08;5.90;99.90
37646;DHT22;23489;49.600;6.138;2024-03-02T06:29:33;5.90;99.90
37646;DHT22;23489;49.600;6.138;2024-03-02T06:31:59;5.90;99.90
37646;DHT22;23489;49.600;6.138;2024-03-02T06:34:25;6.00;99.90
37646;DHT22;23489;49.600;6.138;2024-03-02T06:36:51;6.00;99.90
37646;DHT22;23489;49.600;6.138;2024-03-02T06:39:17;6.10;99.90
37646;DHT22;23489;49.600;6.138;2024-03-02T06:41:42;6.20;99.90
37646;DHT22;23489;49.600;6.138;2024-03-02T06:44:08;6.20;99.90
37646;DHT22;23489;49.600;6.138;2024-03-02T06:46:34;6.30;99.90
37646;DHT22;23489;49.600;6.138;2024-03-02T06:48:59;6.30;99.90
37646;DHT22;23489;49.600;6.138;2024-03-02T06:51:27;6.40;99.90
37646;DHT22;23489;49.600;6.138;2024-03-02T06:53:53;6.50;99.90
37646;DHT22;23489;49.600;6.138;2024-03-02T06:56:19;6.60;99.90
37646;DHT22;23489;49.600;6.138;2024-03-02T06:58:44;6.60;99.90
37646;DHT22;23489;49.600;6.138;2024-03-02T07:01:10;6.70;99.90
37646;DHT22;23489;49.600;6.138;2024-03-02T07:03:36;6.80;99.90
37646;DHT22;23489;49.600;6.138;2024-03-02T07:06:01;6.80;99.90
37646;DHT22;23489;49.600;6.138;2024-03-02T07:08:27;6.80;99.90
37646;DHT22;23489;49.600;6.138;2024-03-02T07:10:53;6.80;99.90
37646;DHT22;23489;49.600;6.138;2024-03-02T07:13:18;6.80;99.90
37646;DHT22;23489;49.600;6.138;2024-03-02T07:15:44;6.80;99.90
37646;DHT22;23489;49.600;6.138;2024-03-02T07:18:32;6.80;99.90
37646;DHT22;23489;49.600;6.138;2024-03-02T07:21:07;6.80;99.90
37646;DHT22;23489;49.600;6.138;2024-03-02T07:23:33;6.70;99.90
37646;DHT22;23489;49.600;6.138;2024-03-02T07:25:59;6.70;99.90
37646;DHT22;23489;49.600;6.138;2024-03-02T07:28:27;6.70;99.90
37646;DHT22;23489;49.600;6.138;2024-03-02T07:30:59;6.70;99.90
37646;DHT22;23489;49.600;6.138;2024-03-02T07:33:25;6.70;99.90
37646;DHT22;23489;49.600;6.138;2024-03-02T07:35:51;6.80;99.90
37646;DHT22;23489;49.600;6.138;2024-03-02T07:38:16;6.80;99.90
37646;DHT22;23489;49.600;6.138;2024-03-02T07:40:42;6.80;99.90
37646;DHT22;23489;49.600;6.138;2024-03-02T07:43:08;6.80;99.90
37646;DHT22;23489;49.600;6.138;2024-03-02T07:45:34;6.80;99.90
37646;DHT22;23489;49.600;6.138;2024-03-02T07:48:02;7.00;99.90
37646;DHT22;23489;49.600;6.138;2024-03-02T07:50:29;7.10;99.90
37646;DHT22;23489;49.600;6.138;2024-03-02T07:52:56;7.20;99.90
37646;DHT22;23489;49.600;6.138;2024-03-02T07:55:21;7.20;99.90
37646;DHT22;23489;49.600;6.138;2024-03-02T07:57:49;7.40;99.90
37646;DHT22;23489;49.600;6.138;2024-03-02T08:00:15;7.60;99.90
37646;DHT22;23489;49.600;6.138;2024-03-02T08:02:41;8.20;99.90
37646;DHT22;23489;49.600;6.138;2024-03-02T08:05:08;8.80;99.90
37646;DHT22;23489;49.600;6.138;2024-03-02T08:07:34;9.50;99.90
37646;DHT22;23489;49.600;6.138;2024-03-02T08:10:00;10.20;99.90
37646;DHT22;23489;49.600;6.138;2024-03-02T08:12:25;11.30;99.90
37646;DHT22;23489;49.600;6.138;2024-03-02T08:14:51;12.20;99.90
37646;DHT22;23489;49.600;6.138;2024-03-02T08:17:16;12.80;99.90
37646;DHT22;23489;49.600;6.138;2024-03-02T08:19:42;13.20;99.90
37646;DHT22;23489;49.600;6.138;2024-03-02T08:22:08;13.60;99.90
37646;DHT22;23489;49.600;6.138;2024-03-02T08:24:34;14.20;99.90
37646;DHT22;23489;49.600;6.138;2024-03-02T08:26:59;13.10;99.90
37646;DHT22;23489;49.600;6.138;2024-03-02T08:29:25;12.60;99.90
37646;DHT22;23489;49.600;6.138;2024-03-02T08:31:50;12.30;99.90
37646;DHT22;23489;49.600;6.138;2024-03-02T08:34:16;12.60;99.90
37646;DHT22;23489;49.600;6.138;2024-03-02T08:36:42;13.70;99.90
37646;DHT22;23489;49.600;6.138;2024-03-02T08:39:08;14.50;99.90
37646;DHT22;23489;49.600;6.138;2024-03-02T08:41:49;14.20;99.90
37646;DHT22;23489;49.600;6.138;2024-03-02T08:44:15;13.60;99.90
37646;DHT22;23489;49.600;6.138;2024-03-02T08:46:40;13.40;99.90
37646;DHT22;23489;49.600;6.138;2024-03-02T08:49:06;12.60;99.90
37646;DHT22;23489;49.600;6.138;2024-03-02T08:51:32;11.80;99.90
37646;DHT22;23489;49.600;6.138;2024-03-02T08:53:58;11.30;99.90
37646;DHT22;23489;49.600;6.138;2024-03-02T08:56:24;11.00;99.90
37646;DHT22;23489;49.600;6.138;2024-03-02T08:58:50;10.70;99.90
37646;DHT22;23489;49.600;6.138;2024-03-02T09:01:16;10.30;99.90
37646;DHT22;23489;49.600;6.138;2024-03-02T09:03:42;10.00;99.90
37646;DHT22;23489;49.600;6.138;2024-03-02T09:06:10;9.80;99.90
37646;DHT22;23489;49.600;6.138;2024-03-02T09:08:35;9.60;99.90
37646;DHT22;23489;49.600;6.138;2024-03-02T09:11:07;9.50;99.90
37646;DHT22;23489;49.600;6.138;2024-03-02T09:13:33;9.30;99.90
37646;DHT22;23489;49.600;6.138;2024-03-02T09:15:59;9.40;99.90
37646;DHT22;23489;49.600;6.138;2024-03-02T09:18:24;9.30;99.90
37646;DHT22;23489;49.600;6.138;2024-03-02T09:20:50;9.30;99.90
37646;DHT22;23489;49.600;6.138;2024-03-02T09:23:15;9.20;99.90
37646;DHT22;23489;49.600;6.138;2024-03-02T09:25:41;9.10;99.90
37646;DHT22;23489;49.600;6.138;2024-03-02T09:28:07;9.00;99.90
37646;DHT22;23489;49.600;6.138;2024-03-02T09:30:33;9.00;99.90
37646;DHT22;23489;49.600;6.138;2024-03-02T09:32:58;9.10;99.90
37646;DHT22;23489;49.600;6.138;2024-03-02T09:35:24;9.40;99.90
37646;DHT22;23489;49.600;6.138;2024-03-02T09:37:50;10.00;99.90
37646;DHT22;23489;49.600;6.138;2024-03-02T09:40:15;10.70;99.90
37646;DHT22;23489;49.600;6.138;2024-03-02T09:42:41;11.60;99.90
37646;DHT22;23489;49.600;6.138;2024-03-02T09:45:07;13.00;99.90
37646;DHT22;23489;49.600;6.138;2024-03-02T09:47:33;14.10;99.90
37646;DHT22;23489;49.600;6.138;2024-03-02T09:49:59;14.70;99.90
37646;DHT22;23489;49.600;6.138;2024-03-02T09:52:24;14.00;99.90
37646;DHT22;23489;49.600;6.138;2024-03-02T09:54:50;13.60;99.90
37646;DHT22;23489;49.600;6.138;2024-03-02T09:57:16;12.70;99.90
37646;DHT22;23489;49.600;6.138;2024-03-02T09:59:42;12.30;99.90
37646;DHT22;23489;49.600;6.138;2024-03-02T10:02:07;11.60;99.90
37646;DHT22;23489;49.600;6.138;2024-03-02T10:04:33;11.00;99.90
37646;DHT22;23489;49.600;6.138;2024-03-02T10:07:17;10.90;99.90
37646;DHT22;23489;49.600;6.138;2024-03-02T10:09:43;10.80;99.90
37646;DHT22;23489;49.600;6.138;2024-03-02T10:12:10;11.10;99.90
37646;DHT22;23489;49.600;6.138;2024-03-02T10:14:39;12.20;99.90
37646;DHT22;23489;49.600;6.138;2024-03-02T10:17:06;12.90;99.90
37646;DHT22;23489;49.600;6.138;2024-03-02T10:19:32;13.10;99.90
37646;DHT22;23489;49.600;6.138;2024-03-02T10:21:58;13.20;99.90
37646;DHT22;23489;49.600;6.138;2024-03-02T10:24:24;13.00;99.90
37646;DHT22;23489;49.600;6.138;2024-03-02T10:26:51;12.60;99.90
37646;DHT22;23489;49.600;6.138;2024-03-02T10:29:17;11.70;99.90
37646;DHT22;23489;49.600;6.138;2024-03-02T10:31:44;11.20;99.90
37646;DHT22;23489;49.600;6.138;2024-03-02T10:34:21;10.70;99.90
37646;DHT22;23489;49.600;6.138;2024-03-02T10:36:47;10.60;99.90
37646;DHT22;23489;49.600;6.138;2024-03-02T10:39:13;10.40;99.90
37646;DHT22;23489;49.600;6.138;2024-03-02T10:41:40;10.40;99.90
37646;DHT22;23489;49.600;6.138;2024-03-02T10:44:07;10.40;99.90
37646;DHT22;23489;49.600;6.138;2024-03-02T10:46:34;10.10;99.90
37646;DHT22;23489;49.600;6.138;2024-03-02T10:49:01;9.90;99.90
37646;DHT22;23489;49.600;6.138;2024-03-02T10:51:29;9.70;99.90
37646;DHT22;23489;49.600;6.138;2024-03-02T10:53:57;9.70;99.90
37646;DHT22;23489;49.600;6.138;2024-03-02T10:56:32;9.80;99.90
37646;DHT22;23489;49.600;6.138;2024-03-02T10:59:18;9.90;99.90
37646;DHT22;23489;49.600;6.138;2024-03-02T11:01:48;10.10;99.90
37646;DHT22;23489;49.600;6.138;2024-03-02T11:04:17;10.00;99.90
37646;DHT22;23489;49.600;6.138;2024-03-02T11:06:49;9.80;99.90
37646;DHT22;23489;49.600;6.138;2024-03-02T11:09:18;9.70;99.90
37646;DHT22;23489;49.600;6.138;2024-03-02T11:11:45;9.70;99.90
37646;DHT22;23489;49.600;6.138;2024-03-02T11:14:16;9.80;99.90
37646;DHT22;23489;49.600;6.138;2024-03-02T11:16:42;9.80;99.90
37646;DHT22;23489;49.600;6.138;2024-03-02T11:19:11;9.80;99.90
37646;DHT22;23489;49.600;6.138;2024-03-02T11:21:38;10.00;99.90
37646;DHT22;23489;49.600;6.138;2024-03-02T11:24:37;10.30;99.90
37646;DHT22;23489;49.600;6.138;2024-03-02T11:27:05;10.60;99.90
37646;DHT22;23489;49.600;6.138;2024-03-02T11:32:21;10.60;99.90
37646;DHT22;23489;49.600;6.138;2024-03-02T11:34:48;10.70;99.90
37646;DHT22;23489;49.600;6.138;2024-03-02T11:37:19;10.60;99.90
37646;DHT22;23489;49.600;6.138;2024-03-02T11:39:51;10.60;99.90
37646;DHT22;23489;49.600;6.138;2024-03-02T11:42:17;10.90;99.90
37646;DHT22;23489;49.600;6.138;2024-03-02T11:44:43;11.10;99.90
37646;DHT22;23489;49.600;6.138;2024-03-02T11:47:10;11.30;99.90
37646;DHT22;23489;49.600;6.138;2024-03-02T11:49:40;11.40;99.90
37646;DHT22;23489;49.600;6.138;2024-03-02T11:52:06;11.50;99.90
37646;DHT22;23489;49.600;6.138;2024-03-02T11:54:33;11.50;99.90
37646;DHT22;23489;49.600;6.138;2024-03-02T11:57:02;11.40;99.90
37646;DHT22;23489;49.600;6.138;2024-03-02T11:59:31;11.50;99.90
37646;DHT22;23489;49.600;6.138;2024-03-02T12:01:57;11.60;99.90
37646;DHT22;23489;49.600;6.138;2024-03-02T12:04:23;11.50;99.90
37646;DHT22;23489;49.600;6.138;2024-03-02T12:06:55;11.60;99.90
37646;DHT22;23489;49.600;6.138;2024-03-02T12:09:21;11.50;99.90
37646;DHT22;23489;49.600;6.138;2024-03-02T12:11:47;11.50;99.90
37646;DHT22;23489;49.600;6.138;2024-03-02T12:14:13;11.60;99.90
37646;DHT22;23489;49.600;6.138;2024-03-02T12:16:38;11.60;99.90
37646;DHT22;23489;49.600;6.138;2024-03-02T12:19:06;11.60;99.90
37646;DHT22;23489;49.600;6.138;2024-03-02T12:21:31;11.50;99.90
37646;DHT22;23489;49.600;6.138;2024-03-02T12:23:57;11.70;99.90
37646;DHT22;23489;49.600;6.138;2024-03-02T12:26:23;11.90;99.90
37646;DHT22;23489;49.600;6.138;2024-03-02T12:28:50;12.10;99.90
37646;DHT22;23489;49.600;6.138;2024-03-02T12:31:15;12.10;99.90
37646;DHT22;23489;49.600;6.138;2024-03-02T12:33:41;12.20;99.90
37646;DHT22;23489;49.600;6.138;2024-03-02T12:36:10;12.30;99.90
37646;DHT22;23489;49.600;6.138;2024-03-02T12:38:37;12.30;99.90
37646;DHT22;23489;49.600;6.138;2024-03-02T12:41:08;12.20;99.90
37646;DHT22;23489;49.600;6.138;2024-03-02T12:43:34;12.10;99.90
37646;DHT22;23489;49.600;6.138;2024-03-02T12:45:59;12.20;99.90
37646;DHT22;23489;49.600;6.138;2024-03-02T12:48:25;12.40;99.90
37646;DHT22;23489;49.600;6.138;2024-03-02T12:50:51;12.40;99.90
37646;DHT22;23489;49.600;6.138;2024-03-02T12:53:17;12.40;99.90
37646;DHT22;23489;49.600;6.138;2024-03-02T12:55:43;12.40;99.90
37646;DHT22;23489;49.600;6.138;2024-03-02T12:58:19;12.60;99.90
37646;DHT22;23489;49.600;6.138;2024-03-02T13:00:45;12.80;99.90
37646;DHT22;23489;49.600;6.138;2024-03-02T13:03:11;13.00;99.90
37646;DHT22;23489;49.600;6.138;2024-03-02T13:05:37;13.00;99.90
37646;DHT22;23489;49.600;6.138;2024-03-02T13:08:05;13.10;99.90
37646;DHT22;23489;49.600;6.138;2024-03-02T13:10:33;13.00;99.90
37646;DHT22;23489;49.600;6.138;2024-03-02T13:12:59;13.10;99.90
37646;DHT22;23489;49.600;6.138;2024-03-02T13:15:26;13.20;99.90
37646;DHT22;23489;49.600;6.138;2024-03-02T13:17:52;13.20;99.90
37646;DHT22;23489;49.600;6.138;2024-03-02T13:20:18;13.40;99.90
37646;DHT22;23489;49.600;6.138;2024-03-02T13:22:45;13.50;99.90
37646;DHT22;23489;49.600;6.138;2024-03-02T13:25:12;13.60;99.90
37646;DHT22;23489;49.600;6.138;2024-03-02T13:27:37;13.80;99.90
37646;DHT22;23489;49.600;6.138;2024-03-02T13:30:03;13.80;99.90
37646;DHT22;23489;49.600;6.138;2024-03-02T13:32:31;13.80;99.90
37646;DHT22;23489;49.600;6.138;2024-03-02T13:34:57;14.10;99.90
37646;DHT22;23489;49.600;6.138;2024-03-02T13:37:23;14.10;99.90
37646;DHT22;23489;49.600;6.138;2024-03-02T13:39:49;13.90;99.90
37646;DHT22;23489;49.600;6.138;2024-03-02T13:42:15;13.80;99.90
37646;DHT22;23489;49.600;6.138;2024-03-02T13:44:43;13.90;99.90
37646;DHT22;23489;49.600;6.138;2024-03-02T13:47:11;13.60;99.90
37646;DHT22;23489;49.600;6.138;2024-03-02T13:49:36;13.60;99.90
37646;DHT22;23489;49.600;6.138;2024-03-02T13:52:04;13.70;99.90
37646;DHT22;23489;49.600;6.138;2024-03-02T13:54:43;13.40;99.90
37646;DHT22;23489;49.600;6.138;2024-03-02T13:57:10;13.30;99.90
37646;DHT22;23489;49.600;6.138;2024-03-02T13:59:36;12.90;99.90
37646;DHT22;23489;49.600;6.138;2024-03-02T14:02:03;12.70;99.90
37646;DHT22;23489;49.600;6.138;2024-03-02T14:04:32;12.70;99.90
37646;DHT22;23489;49.600;6.138;2024-03-02T14:06:59;12.80;99.90
37646;DHT22;23489;49.600;6.138;2024-03-02T14:09:25;13.00;99.90
37646;DHT22;23489;49.600;6.138;2024-03-02T14:11:53;13.20;99.90
37646;DHT22;23489;49.600;6.138;2024-03-02T14:14:19;13.30;99.90
37646;DHT22;23489;49.600;6.138;2024-03-02T14:16:45;13.40;99.90
37646;DHT22;23489;49.600;6.138;2024-03-02T14:19:11;13.20;99.90
37646;DHT22;23489;49.600;6.138;2024-03-02T14:21:38;13.00;99.90
37646;DHT22;23489;49.600;6.138;2024-03-02T14:24:04;12.80;99.90
37646;DHT22;23489;49.600;6.138;2024-03-02T14:26:30;12.80;99.90
37646;DHT22;23489;49.600;6.138;2024-03-02T14:28:55;12.80;99.90
37646;DHT22;23489;49.600;6.138;2024-03-02T14:31:21;12.70;99.90
37646;DHT22;23489;49.600;6.138;2024-03-02T14:33:47;12.80;99.90
37646;DHT22;23489;49.600;6.138;2024-03-02T14:36:13;12.90;99.90
37646;DHT22;23489;49.600;6.138;2024-03-02T14:38:39;12.80;99.90
37646;DHT22;23489;49.600;6.138;2024-03-02T14:41:05;12.80;99.90
37646;DHT22;23489;49.600;6.138;2024-03-02T14:43:30;12.70;99.90
37646;DHT22;23489;49.600;6.138;2024-03-02T14:45:56;12.70;99.90
37646;DHT22;23489;49.600;6.138;2024-03-02T14:48:22;12.80;99.90
37646;DHT22;23489;49.600;6.138;2024-03-02T14:50:48;12.80;99.90
37646;DHT22;23489;49.600;6.138;2024-03-02T14:53:14;12.90;99.90
37646;DHT22;23489;49.600;6.138;2024-03-02T14:55:40;13.00;99.90
37646;DHT22;23489;49.600;6.138;2024-03-02T14:58:05;13.10;99.90
37646;DHT22;23489;49.600;6.138;2024-03-02T15:00:31;13.10;99.90
37646;DHT22;23489;49.600;6.138;2024-03-02T15:02:57;13.20;99.90
37646;DHT22;23489;49.600;6.138;2024-03-02T15:05:23;13.30;99.90
37646;DHT22;23489;49.600;6.138;2024-03-02T15:07:52;13.30;99.90
37646;DHT22;23489;49.600;6.138;2024-03-02T15:10:18;13.10;99.90
37646;DHT22;23489;49.600;6.138;2024-03-02T15:12:44;13.00;99.90
37646;DHT22;23489;49.600;6.138;2024-03-02T15:15:10;12.90;99.90
37646;DHT22;23489;49.600;6.138;2024-03-02T15:17:37;12.80;99.90
37646;DHT22;23489;49.600;6.138;2024-03-02T15:20:03;12.70;99.90
37646;DHT22;23489;49.600;6.138;2024-03-02T15:22:30;12.70;99.90
37646;DHT22;23489;49.600;6.138;2024-03-02T15:24:55;12.60;99.90
37646;DHT22;23489;49.600;6.138;2024-03-02T15:27:21;12.70;99.90
37646;DHT22;23489;49.600;6.138;2024-03-02T15:29:47;12.80;99.90
37646;DHT22;23489;49.600;6.138;2024-03-02T15:32:15;12.90;99.90
37646;DHT22;23489;49.600;6.138;2024-03-02T15:34:41;13.00;99.90
37646;DHT22;23489;49.600;6.138;2024-03-02T15:37:08;12.90;99.90
37646;DHT22;23489;49.600;6.138;2024-03-02T15:39:34;12.90;99.90
37646;DHT22;23489;49.600;6.138;2024-03-02T15:42:00;12.80;99.90